sensor_id;sensor_type;location;lat;lon;timestamp;pressure;altitude;pressure_sealevel;temperature;humidity
64298;BME280;50639;53.270;7.956;2023-10-31T00:00:17;99321.34;;;12.73;87.45
64298;BME280;50639;53.270;7.956;2023-10-31T00:02:43;99327.19;;;12.75;87.34
64298;BME280;50639;53.270;7.956;2023-10-31T00:05:08;99316.81;;;12.75;87.15
64298;BME280;50639;53.270;7.956;2023-10-31T00:07:34;99314.78;;;12.69;87.26
64298;BME280;50639;53.270;7.956;2023-10-31T00:09:59;99309.72;;;12.68;87.24
64298;BME280;50639;53.270;7.956;2023-10-31T00:12:24;99302.75;;;12.68;87.57
64298;BME280;50639;53.270;7.956;2023-10-31T00:14:49;99303.44;;;12.70;87.36
64298;BME280;50639;53.270;7.956;2023-10-31T00:17:15;99297.69;;;12.67;87.40
64298;BME280;50639;53.270;7.956;2023-10-31T00:19:40;99296.91;;;12.66;87.33
64298;BME280;50639;53.270;7.956;2023-10-31T00:22:05;99307.31;;;12.66;87.64
64298;BME280;50639;53.270;7.956;2023-10-31T00:24:31;99301.66;;;12.71;87.49
64298;BME280;50639;53.270;7.956;2023-10-31T00:26:57;99300.84;;;12.70;87.33
64298;BME280;50639;53.270;7.956;2023-10-31T00:29:22;99299.66;;;12.65;87.87
64298;BME280;50639;53.270;7.956;2023-10-31T00:31:47;99303.59;;;12.69;87.69
64298;BME280;50639;53.270;7.956;2023-10-31T00:34:13;99299.50;;;12.66;87.72
64298;BME280;50639;53.270;7.956;2023-10-31T00:36:38;99313.47;;;12.65;87.67
64298;BME280;50639;53.270;7.956;2023-10-31T00:39:03;99312.63;;;12.65;88.32
64298;BME280;50639;53.270;7.956;2023-10-31T00:41:28;99303.88;;;12.66;88.13
64298;BME280;50639;53.270;7.956;2023-10-31T00:43:54;99302.34;;;12.73;87.92
64298;BME280;50639;53.270;7.956;2023-10-31T00:46:19;99297.00;;;12.74;87.54
64298;BME280;50639;53.270;7.956;2023-10-31T00:48:45;99297.28;;;12.71;87.63
64298;BME280;50639;53.270;7.956;2023-10-31T00:51:11;99299.88;;;12.71;87.57
64298;BME280;50639;53.270;7.956;2023-10-31T00:53:36;99301.41;;;12.74;87.51
64298;BME280;50639;53.270;7.956;2023-10-31T00:56:02;99293.75;;;12.72;87.62
64298;BME280;50639;53.270;7.956;2023-10-31T00:58:27;99295.38;;;12.73;87.63
64298;BME280;50639;53.270;7.956;2023-10-31T01:00:52;99300.72;;;12.72;87.70
64298;BME280;50639;53.270;7.956;2023-10-31T01:03:18;99297.16;;;12.73;87.50
64298;BME280;50639;53.270;7.956;2023-10-31T01:05:43;99292.91;;;12.72;88.05
64298;BME280;50639;53.270;7.956;2023-10-31T01:08:09;99287.72;;;12.72;87.76
64298;BME280;50639;53.270;7.956;2023-10-31T01:10:34;99275.91;;;12.77;87.64
64298;BME280;50639;53.270;7.956;2023-10-31T01:12:59;99281.94;;;12.78;87.74
64298;BME280;50639;53.270;7.956;2023-10-31T01:15:25;99274.31;;;12.67;88.04
64298;BME280;50639;53.270;7.956;2023-10-31T01:17:51;99280.34;;;12.67;87.97
64298;BME280;50639;53.270;7.956;2023-10-31T01:20:16;99274.63;;;12.64;88.29
64298;BME280;50639;53.270;7.956;2023-10-31T01:22:41;99287.03;;;12.70;87.82
64298;BME280;50639;53.270;7.956;2023-10-31T01:25:07;99279.53;;;12.67;88.08
64298;BME280;50639;53.270;7.956;2023-10-31T01:27:32;99283.63;;;12.69;88.31
64298;BME280;50639;53.270;7.956;2023-10-31T01:29:58;99278.19;;;12.63;88.25
64298;BME280;50639;53.270;7.956;2023-10-31T01:32:23;99273.53;;;12.66;88.21
64298;BME280;50639;53.270;7.956;2023-10-31T01:34:48;99262.03;;;12.69;88.04
64298;BME280;50639;53.270;7.956;2023-10-31T01:37:14;99263.66;;;12.70;88.09
64298;BME280;50639;53.270;7.956;2023-10-31T01:39:39;99263.53;;;12.71;87.84
64298;BME280;50639;53.270;7.956;2023-10-31T01:42:05;99262.44;;;12.74;88.21
64298;BME280;50639;53.270;7.956;2023-10-31T01:44:30;99261.28;;;12.76;88.11
64298;BME280;50639;53.270;7.956;2023-10-31T01:46:56;99253.91;;;12.81;88.23
64298;BME280;50639;53.270;7.956;2023-10-31T01:49:22;99244.97;;;12.84;87.43
64298;BME280;50639;53.270;7.956;2023-10-31T01:51:47;99241.19;;;12.78;87.63
64298;BME280;50639;53.270;7.956;2023-10-31T01:54:13;99236.59;;;12.72;87.67
64298;BME280;50639;53.270;7.956;2023-10-31T01:56:39;99239.69;;;12.76;88.17
64298;BME280;50639;53.270;7.956;2023-10-31T01:59:05;99237.63;;;12.79;88.05
64298;BME280;50639;53.270;7.956;2023-10-31T02:01:32;99239.56;;;12.77;88.28
64298;BME280;50639;53.270;7.956;2023-10-31T02:03:57;99237.63;;;12.79;88.28
64298;BME280;50639;53.270;7.956;2023-10-31T02:06:23;99225.81;;;12.85;88.02
64298;BME280;50639;53.270;7.956;2023-10-31T02:08:49;99236.22;;;12.85;87.84
64298;BME280;50639;53.270;7.956;2023-10-31T02:11:14;99219.00;;;12.84;87.62
64298;BME280;50639;53.270;7.956;2023-10-31T02:13:39;99219.31;;;12.81;87.69
64298;BME280;50639;53.270;7.956;2023-10-31T02:16:05;99218.47;;;12.80;88.09
64298;BME280;50639;53.270;7.956;2023-10-31T02:18:33;99215.59;;;12.84;87.67
64298;BME280;50639;53.270;7.956;2023-10-31T02:20:58;99212.47;;;12.80;88.17
64298;BME280;50639;53.270;7.956;2023-10-31T02:23:24;99205.63;;;12.79;88.17
64298;BME280;50639;53.270;7.956;2023-10-31T02:25:49;99206.00;;;12.84;87.38
64298;BME280;50639;53.270;7.956;2023-10-31T02:28:14;99206.16;;;12.82;87.67
64298;BME280;50639;53.270;7.956;2023-10-31T02:30:40;99204.53;;;12.81;87.64
64298;BME280;50639;53.270;7.956;2023-10-31T02:33:05;99204.53;;;12.81;87.78
64298;BME280;50639;53.270;7.956;2023-10-31T02:35:31;99197.84;;;12.79;87.76
64298;BME280;50639;53.270;7.956;2023-10-31T02:37:56;99196.19;;;12.78;87.77
64298;BME280;50639;53.270;7.956;2023-10-31T02:40:21;99195.03;;;12.72;87.87
64298;BME280;50639;53.270;7.956;2023-10-31T02:42:47;99196.34;;;12.76;87.91
64298;BME280;50639;53.270;7.956;2023-10-31T02:45:13;99190.19;;;12.77;88.10
64298;BME280;50639;53.270;7.956;2023-10-31T02:47:38;99198.81;;;12.78;88.25
64298;BME280;50639;53.270;7.956;2023-10-31T02:50:03;99199.63;;;12.78;88.32
64298;BME280;50639;53.270;7.956;2023-10-31T02:52:29;99199.47;;;12.80;87.98
64298;BME280;50639;53.270;7.956;2023-10-31T02:54:54;99197.69;;;12.80;87.57
64298;BME280;50639;53.270;7.956;2023-10-31T02:57:20;99190.88;;;12.79;88.15
64298;BME280;50639;53.270;7.956;2023-10-31T02:59:45;99185.53;;;12.81;87.66
64298;BME280;50639;53.270;7.956;2023-10-31T03:02:11;99183.59;;;12.83;87.78
64298;BME280;50639;53.270;7.956;2023-10-31T03:04:36;99177.41;;;12.84;87.97
64298;BME280;50639;53.270;7.956;2023-10-31T03:07:02;99180.63;;;12.78;88.01
64298;BME280;50639;53.270;7.956;2023-10-31T03:09:27;99175.28;;;12.79;87.80
64298;BME280;50639;53.270;7.956;2023-10-31T03:11:53;99169.94;;;12.81;87.74
64298;BME280;50639;53.270;7.956;2023-10-31T03:14:19;99160.66;;;12.78;87.83
64298;BME280;50639;53.270;7.956;2023-10-31T03:16:44;99166.94;;;12.76;88.20
64298;BME280;50639;53.270;7.956;2023-10-31T03:19:09;99158.88;;;12.79;87.83
64298;BME280;50639;53.270;7.956;2023-10-31T03:21:34;99159.16;;;12.76;88.07
64298;BME280;50639;53.270;7.956;2023-10-31T03:24:00;99153.69;;;12.79;87.88
64298;BME280;50639;53.270;7.956;2023-10-31T03:26:25;99160.16;;;12.75;88.57
64298;BME280;50639;53.270;7.956;2023-10-31T03:28:50;99154.50;;;12.79;87.92
64298;BME280;50639;53.270;7.956;2023-10-31T03:31:16;99153.38;;;12.82;88.08
64298;BME280;50639;53.270;7.956;2023-10-31T03:33:41;99152.56;;;12.81;88.05
64298;BME280;50639;53.270;7.956;2023-10-31T03:36:07;99158.50;;;12.74;87.93
64298;BME280;50639;53.270;7.956;2023-10-31T03:38:33;99150.47;;;12.67;88.53
64298;BME280;50639;53.270;7.956;2023-10-31T03:40:58;99158.50;;;12.74;88.41
64298;BME280;50639;53.270;7.956;2023-10-31T03:43:23;99153.81;;;12.77;88.24
64298;BME280;50639;53.270;7.956;2023-10-31T03:45:49;99154.34;;;12.81;87.94
64298;BME280;50639;53.270;7.956;2023-10-31T03:48:15;99148.06;;;12.84;88.18
64298;BME280;50639;53.270;7.956;2023-10-31T03:50:41;99148.34;;;12.80;88.19
64298;BME280;50639;53.270;7.956;2023-10-31T03:53:06;99145.59;;;12.82;87.82
64298;BME280;50639;53.270;7.956;2023-10-31T03:55:31;99146.41;;;12.82;88.22
64298;BME280;50639;53.270;7.956;2023-10-31T03:57:56;99153.38;;;12.82;87.90
64298;BME280;50639;53.270;7.956;2023-10-31T04:00:22;99148.19;;;12.82;88.18
64298;BME280;50639;53.270;7.956;2023-10-31T04:02:48;99144.91;;;12.80;88.22
64298;BME280;50639;53.270;7.956;2023-10-31T04:05:14;99140.41;;;12.82;87.96
64298;BME280;50639;53.270;7.956;2023-10-31T04:07:39;99139.59;;;12.81;88.19
64298;BME280;50639;53.270;7.956;2023-10-31T04:10:04;99147.38;;;12.81;88.19
64298;BME280;50639;53.270;7.956;2023-10-31T04:12:30;99133.56;;;12.81;88.26
64298;BME280;50639;53.270;7.956;2023-10-31T04:14:56;99130.00;;;12.82;88.25
64298;BME280;50639;53.270;7.956;2023-10-31T04:17:21;99133.94;;;12.86;87.97
64298;BME280;50639;53.270;7.956;2023-10-31T04:19:46;99133.94;;;12.86;87.57
64298;BME280;50639;53.270;7.956;2023-10-31T04:22:11;99131.25;;;12.78;87.99
64298;BME280;50639;53.270;7.956;2023-10-31T04:24:37;99152.56;;;12.81;87.91
64298;BME280;50639;53.270;7.956;2023-10-31T04:27:02;99162.72;;;12.57;88.63
64298;BME280;50639;53.270;7.956;2023-10-31T04:29:27;99165.56;;;11.99;88.42
64298;BME280;50639;53.270;7.956;2023-10-31T04:31:53;99168.97;;;11.24;91.20
64298;BME280;50639;53.270;7.956;2023-10-31T04:34:18;99175.22;;;10.93;92.38
64298;BME280;50639;53.270;7.956;2023-10-31T04:36:43;99181.88;;;10.76;92.63
64298;BME280;50639;53.270;7.956;2023-10-31T04:39:09;99172.75;;;10.63;93.28
64298;BME280;50639;53.270;7.956;2023-10-31T04:41:34;99167.53;;;10.53;92.84
64298;BME280;50639;53.270;7.956;2023-10-31T04:44:00;99182.59;;;10.38;93.10
64298;BME280;50639;53.270;7.956;2023-10-31T04:46:25;99181.91;;;10.27;93.30
64298;BME280;50639;53.270;7.956;2023-10-31T04:48:52;99185.97;;;10.20;94.03
64298;BME280;50639;53.270;7.956;2023-10-31T04:51:18;99192.91;;;10.19;93.64
64298;BME280;50639;53.270;7.956;2023-10-31T04:53:43;99193.72;;;10.20;93.87
64298;BME280;50639;53.270;7.956;2023-10-31T04:56:12;99207.94;;;10.14;93.77
64298;BME280;50639;53.270;7.956;2023-10-31T04:58:38;99214.19;;;10.11;94.08
64298;BME280;50639;53.270;7.956;2023-10-31T05:01:07;99229.03;;;10.09;93.86
64298;BME280;50639;53.270;7.956;2023-10-31T05:03:32;99240.16;;;10.21;94.00
64298;BME280;50639;53.270;7.956;2023-10-31T05:05:58;99242.53;;;10.13;93.95
64298;BME280;50639;53.270;7.956;2023-10-31T05:08:23;99244.78;;;10.17;93.70
64298;BME280;50639;53.270;7.956;2023-10-31T05:10:48;99252.97;;;10.23;93.75
64298;BME280;50639;53.270;7.956;2023-10-31T05:13:14;99258.41;;;10.20;93.90
64298;BME280;50639;53.270;7.956;2023-10-31T05:15:39;99265.00;;;10.12;93.97
64298;BME280;50639;53.270;7.956;2023-10-31T05:18:04;99263.16;;;10.03;93.49
64298;BME280;50639;53.270;7.956;2023-10-31T05:20:29;99273.09;;;9.98;93.74
64298;BME280;50639;53.270;7.956;2023-10-31T05:22:55;99273.50;;;10.03;93.75
64298;BME280;50639;53.270;7.956;2023-10-31T05:25:20;99287.41;;;10.02;93.96
64298;BME280;50639;53.270;7.956;2023-10-31T05:27:45;99293.78;;;9.98;93.68
64298;BME280;50639;53.270;7.956;2023-10-31T05:30:12;99290.59;;;9.95;93.66
64298;BME280;50639;53.270;7.956;2023-10-31T05:32:38;99294.28;;;9.92;93.91
64298;BME280;50639;53.270;7.956;2023-10-31T05:35:03;99297.13;;;9.89;93.90
64298;BME280;50639;53.270;7.956;2023-10-31T05:37:29;99306.75;;;9.87;93.86
64298;BME280;50639;53.270;7.956;2023-10-31T05:39:54;99312.31;;;10.03;94.07
64298;BME280;50639;53.270;7.956;2023-10-31T05:42:19;99321.91;;;9.92;94.26
64298;BME280;50639;53.270;7.956;2023-10-31T05:44:45;99315.09;;;9.91;94.17
64298;BME280;50639;53.270;7.956;2023-10-31T05:47:11;99330.94;;;9.97;93.88
64298;BME280;50639;53.270;7.956;2023-10-31T05:49:36;99343.44;;;9.92;94.07
64298;BME280;50639;53.270;7.956;2023-10-31T05:52:01;99352.25;;;9.90;94.13
64298;BME280;50639;53.270;7.956;2023-10-31T05:54:26;99361.25;;;9.95;94.29
64298;BME280;50639;53.270;7.956;2023-10-31T05:56:52;99364.94;;;9.93;94.29
64298;BME280;50639;53.270;7.956;2023-10-31T05:59:19;99368.47;;;9.92;94.50
64298;BME280;50639;53.270;7.956;2023-10-31T06:01:44;99370.94;;;9.93;94.13
64298;BME280;50639;53.270;7.956;2023-10-31T06:04:09;99374.94;;;9.86;94.02
64298;BME280;50639;53.270;7.956;2023-10-31T06:06:37;99390.00;;;9.81;94.06
64298;BME280;50639;53.270;7.956;2023-10-31T06:09:02;99392.00;;;9.77;94.05
64298;BME280;50639;53.270;7.956;2023-10-31T06:11:28;99403.75;;;9.81;94.40
64298;BME280;50639;53.270;7.956;2023-10-31T06:13:53;99404.59;;;9.82;94.30
64298;BME280;50639;53.270;7.956;2023-10-31T06:16:18;99416.69;;;9.81;94.33
64298;BME280;50639;53.270;7.956;2023-10-31T06:18:44;99415.88;;;9.81;94.14
64298;BME280;50639;53.270;7.956;2023-10-31T06:21:10;99432.31;;;9.80;93.91
64298;BME280;50639;53.270;7.956;2023-10-31T06:23:36;99428.78;;;9.81;94.50
64298;BME280;50639;53.270;7.956;2023-10-31T06:26:01;99435.63;;;9.82;94.13
64298;BME280;50639;53.270;7.956;2023-10-31T06:28:26;99434.91;;;9.80;94.28
64298;BME280;50639;53.270;7.956;2023-10-31T06:30:52;99439.25;;;9.79;94.21
64298;BME280;50639;53.270;7.956;2023-10-31T06:33:17;99443.88;;;9.76;94.63
64298;BME280;50639;53.270;7.956;2023-10-31T06:35:42;99466.16;;;9.77;94.57
64298;BME280;50639;53.270;7.956;2023-10-31T06:38:07;99472.03;;;9.79;94.52
64298;BME280;50639;53.270;7.956;2023-10-31T06:40:33;99470.78;;;9.73;94.75
64298;BME280;50639;53.270;7.956;2023-10-31T06:42:58;99477.59;;;9.74;94.85
64298;BME280;50639;53.270;7.956;2023-10-31T06:45:24;99475.13;;;9.73;94.80
64298;BME280;50639;53.270;7.956;2023-10-31T06:47:49;99482.41;;;9.68;95.14
64298;BME280;50639;53.270;7.956;2023-10-31T06:50:14;99496.16;;;9.68;95.20
64298;BME280;50639;53.270;7.956;2023-10-31T06:52:40;99488.38;;;9.68;95.22
64298;BME280;50639;53.270;7.956;2023-10-31T06:55:06;99496.97;;;9.69;95.12
64298;BME280;50639;53.270;7.956;2023-10-31T06:57:31;99501.69;;;9.64;94.91
64298;BME280;50639;53.270;7.956;2023-10-31T06:59:56;99508.97;;;9.70;94.98
64298;BME280;50639;53.270;7.956;2023-10-31T07:02:22;99509.78;;;9.70;94.67
64298;BME280;50639;53.270;7.956;2023-10-31T07:04:47;99513.78;;;9.74;94.77
64298;BME280;50639;53.270;7.956;2023-10-31T07:07:12;99520.59;;;9.75;94.79
64298;BME280;50639;53.270;7.956;2023-10-31T07:09:37;99528.38;;;9.75;94.68
64298;BME280;50639;53.270;7.956;2023-10-31T07:12:03;99531.41;;;9.69;94.42
64298;BME280;50639;53.270;7.956;2023-10-31T07:14:28;99540.81;;;9.70;94.63
64298;BME280;50639;53.270;7.956;2023-10-31T07:16:53;99534.81;;;9.70;94.66
64298;BME280;50639;53.270;7.956;2023-10-31T07:19:19;99539.41;;;9.66;94.60
64298;BME280;50639;53.270;7.956;2023-10-31T07:21:44;99543.50;;;9.69;94.53
64298;BME280;50639;53.270;7.956;2023-10-31T07:24:09;99555.59;;;9.68;94.10
64298;BME280;50639;53.270;7.956;2023-10-31T07:26:35;99551.97;;;9.71;94.24
64298;BME280;50639;53.270;7.956;2023-10-31T07:29:00;99551.03;;;9.72;94.04
64298;BME280;50639;53.270;7.956;2023-10-31T07:31:26;99550.09;;;9.73;93.97
64298;BME280;50639;53.270;7.956;2023-10-31T07:33:51;99558.41;;;9.76;93.97
64298;BME280;50639;53.270;7.956;2023-10-31T07:36:16;99551.03;;;9.83;94.03
64298;BME280;50639;53.270;7.956;2023-10-31T07:38:41;99548.19;;;9.86;93.90
64298;BME280;50639;53.270;7.956;2023-10-31T07:41:07;99552.69;;;9.84;93.98
64298;BME280;50639;53.270;7.956;2023-10-31T07:43:32;99562.44;;;9.80;94.00
64298;BME280;50639;53.270;7.956;2023-10-31T07:45:57;99570.31;;;9.79;93.63
64298;BME280;50639;53.270;7.956;2023-10-31T07:48:22;99559.47;;;9.85;93.86
64298;BME280;50639;53.270;7.956;2023-10-31T07:50:48;99564.91;;;9.82;93.53
64298;BME280;50639;53.270;7.956;2023-10-31T07:53:13;99565.34;;;9.87;94.06
64298;BME280;50639;53.270;7.956;2023-10-31T07:55:38;99570.91;;;9.94;93.76
64298;BME280;50639;53.270;7.956;2023-10-31T07:58:03;99566.66;;;9.93;93.97
64298;BME280;50639;53.270;7.956;2023-10-31T08:00:29;99574.28;;;10.05;93.48
64298;BME280;50639;53.270;7.956;2023-10-31T08:02:54;99575.09;;;10.06;93.55
64298;BME280;50639;53.270;7.956;2023-10-31T08:05:19;99576.88;;;10.05;93.33
64298;BME280;50639;53.270;7.956;2023-10-31T08:07:44;99574.53;;;10.02;93.56
64298;BME280;50639;53.270;7.956;2023-10-31T08:10:10;99584.97;;;10.12;93.46
64298;BME280;50639;53.270;7.956;2023-10-31T08:12:35;99574.50;;;10.13;93.82
64298;BME280;50639;53.270;7.956;2023-10-31T08:15:01;99581.53;;;10.11;93.25
64298;BME280;50639;53.270;7.956;2023-10-31T08:17:26;99586.72;;;10.11;93.79
64298;BME280;50639;53.270;7.956;2023-10-31T08:19:51;99580.75;;;10.11;93.90
64298;BME280;50639;53.270;7.956;2023-10-31T08:22:17;99586.28;;;10.17;93.93
64298;BME280;50639;53.270;7.956;2023-10-31T08:24:42;99592.75;;;10.23;93.32
64298;BME280;50639;53.270;7.956;2023-10-31T08:27:07;99589.44;;;10.21;93.56
64298;BME280;50639;53.270;7.956;2023-10-31T08:29:33;99596.88;;;10.26;93.55
64298;BME280;50639;53.270;7.956;2023-10-31T08:31:58;99600.00;;;10.29;94.07
64298;BME280;50639;53.270;7.956;2023-10-31T08:34:23;99606.72;;;10.32;93.41
64298;BME280;50639;53.270;7.956;2023-10-31T08:36:48;99603.31;;;10.31;93.73
64298;BME280;50639;53.270;7.956;2023-10-31T08:39:14;99621.53;;;10.41;93.22
64298;BME280;50639;53.270;7.956;2023-10-31T08:41:55;99619.53;;;10.44;93.38
64298;BME280;50639;53.270;7.956;2023-10-31T08:44:21;99617.41;;;10.38;93.53
64298;BME280;50639;53.270;7.956;2023-10-31T08:46:46;99620.00;;;10.38;93.04
64298;BME280;50639;53.270;7.956;2023-10-31T08:49:12;99624.72;;;10.44;93.26
64298;BME280;50639;53.270;7.956;2023-10-31T08:51:37;99626.72;;;10.41;93.31
64298;BME280;50639;53.270;7.956;2023-10-31T08:54:02;99632.09;;;10.49;93.11
64298;BME280;50639;53.270;7.956;2023-10-31T08:56:28;99637.06;;;10.41;93.22
64298;BME280;50639;53.270;7.956;2023-10-31T08:58:53;99638.72;;;10.42;93.55
64298;BME280;50639;53.270;7.956;2023-10-31T09:01:19;99634.13;;;10.45;93.22
64298;BME280;50639;53.270;7.956;2023-10-31T09:03:44;99641.50;;;10.50;93.06
64298;BME280;50639;53.270;7.956;2023-10-31T09:06:09;99640.56;;;10.51;93.39
64298;BME280;50639;53.270;7.956;2023-10-31T09:08:35;99647.84;;;10.57;93.17
64298;BME280;50639;53.270;7.956;2023-10-31T09:11:02;99650.69;;;10.54;93.03
64298;BME280;50639;53.270;7.956;2023-10-31T09:13:28;99660.34;;;10.63;93.10
64298;BME280;50639;53.270;7.956;2023-10-31T09:15:53;99662.44;;;10.58;92.68
64298;BME280;50639;53.270;7.956;2023-10-31T09:18:18;99664.69;;;10.63;92.72
64298;BME280;50639;53.270;7.956;2023-10-31T09:20:44;99669.03;;;10.62;92.75
64298;BME280;50639;53.270;7.956;2023-10-31T09:23:09;99672.06;;;10.67;92.74
64298;BME280;50639;53.270;7.956;2023-10-31T09:25:34;99675.16;;;10.72;92.66
64298;BME280;50639;53.270;7.956;2023-10-31T09:28:00;99686.44;;;10.71;92.30
64298;BME280;50639;53.270;7.956;2023-10-31T09:30:25;99688.00;;;10.63;92.10
64298;BME280;50639;53.270;7.956;2023-10-31T09:32:51;99690.91;;;10.69;92.00
64298;BME280;50639;53.270;7.956;2023-10-31T09:35:17;99689.59;;;10.75;92.39
64298;BME280;50639;53.270;7.956;2023-10-31T09:37:42;99686.41;;;10.82;92.19
64298;BME280;50639;53.270;7.956;2023-10-31T09:40:08;99697.34;;;10.86;91.82
64298;BME280;50639;53.270;7.956;2023-10-31T09:42:35;99697.22;;;10.87;92.40
64298;BME280;50639;53.270;7.956;2023-10-31T09:45:00;99687.66;;;10.99;92.44
64298;BME280;50639;53.270;7.956;2023-10-31T09:47:25;99682.69;;;11.07;91.83
64298;BME280;50639;53.270;7.956;2023-10-31T09:49:51;99681.78;;;11.18;91.75
64298;BME280;50639;53.270;7.956;2023-10-31T09:52:16;99686.25;;;11.27;92.07
64298;BME280;50639;53.270;7.956;2023-10-31T09:54:42;99690.75;;;11.25;91.69
64298;BME280;50639;53.270;7.956;2023-10-31T09:57:07;99684.81;;;11.34;91.28
64298;BME280;50639;53.270;7.956;2023-10-31T09:59:34;99692.72;;;11.53;91.59
64298;BME280;50639;53.270;7.956;2023-10-31T10:01:59;99696.31;;;11.62;91.37
64298;BME280;50639;53.270;7.956;2023-10-31T10:04:24;99696.66;;;11.68;90.54
64298;BME280;50639;53.270;7.956;2023-10-31T10:07:00;99702.06;;;11.77;90.38
64298;BME280;50639;53.270;7.956;2023-10-31T10:09:26;99710.09;;;11.62;90.28
64298;BME280;50639;53.270;7.956;2023-10-31T10:11:52;99704.09;;;11.62;90.50
64298;BME280;50639;53.270;7.956;2023-10-31T10:14:17;99712.81;;;11.61;90.26
64298;BME280;50639;53.270;7.956;2023-10-31T10:16:43;99716.88;;;11.54;90.75
64298;BME280;50639;53.270;7.956;2023-10-31T10:19:14;99712.63;;;11.53;90.59
64298;BME280;50639;53.270;7.956;2023-10-31T10:21:48;99714.63;;;11.60;90.71
64298;BME280;50639;53.270;7.956;2023-10-31T10:24:14;99720.41;;;11.74;90.71
64298;BME280;50639;53.270;7.956;2023-10-31T10:26:39;99723.00;;;11.85;90.75
64298;BME280;50639;53.270;7.956;2023-10-31T10:29:04;99727.22;;;11.86;90.08
64298;BME280;50639;53.270;7.956;2023-10-31T10:31:30;99735.19;;;11.94;90.29
64298;BME280;50639;53.270;7.956;2023-10-31T10:33:55;99730.00;;;11.94;89.58
64298;BME280;50639;53.270;7.956;2023-10-31T10:36:20;99733.31;;;11.96;90.16
64298;BME280;50639;53.270;7.956;2023-10-31T10:38:48;99740.28;;;12.05;90.09
64298;BME280;50639;53.270;7.956;2023-10-31T10:41:16;99737.84;;;12.03;89.62
64298;BME280;50639;53.270;7.956;2023-10-31T10:43:43;99734.59;;;12.11;89.61
64298;BME280;50639;53.270;7.956;2023-10-31T10:46:10;99742.59;;;11.98;89.87
64298;BME280;50639;53.270;7.956;2023-10-31T10:48:37;99733.91;;;12.09;89.61
64298;BME280;50639;53.270;7.956;2023-10-31T10:51:06;99739.69;;;12.13;89.32
64298;BME280;50639;53.270;7.956;2023-10-31T10:53:44;99739.38;;;12.36;89.19
64298;BME280;50639;53.270;7.956;2023-10-31T10:56:16;99745.16;;;12.50;89.10
64298;BME280;50639;53.270;7.956;2023-10-31T11:01:22;99750.66;;;12.26;88.69
64298;BME280;50639;53.270;7.956;2023-10-31T11:03:48;99753.72;;;12.10;88.88
64298;BME280;50639;53.270;7.956;2023-10-31T11:06:13;99784.19;;;11.87;88.62
64298;BME280;50639;53.270;7.956;2023-10-31T11:08:39;99795.16;;;11.48;89.56
64298;BME280;50639;53.270;7.956;2023-10-31T11:11:05;99798.47;;;11.07;88.86
64298;BME280;50639;53.270;7.956;2023-10-31T11:13:30;99811.31;;;10.97;89.94
64298;BME280;50639;53.270;7.956;2023-10-31T11:15:57;99828.03;;;10.93;89.96
64298;BME280;50639;53.270;7.956;2023-10-31T11:18:25;99816.97;;;10.91;90.07
64298;BME280;50639;53.270;7.956;2023-10-31T11:20:50;99830.72;;;11.03;90.09
64298;BME280;50639;53.270;7.956;2023-10-31T11:23:16;99840.53;;;10.88;89.55
64298;BME280;50639;53.270;7.956;2023-10-31T11:25:44;99849.47;;;10.73;89.21
64298;BME280;50639;53.270;7.956;2023-10-31T11:28:10;99860.41;;;10.65;88.49
64298;BME280;50639;53.270;7.956;2023-10-31T11:30:36;99854.31;;;10.55;88.25
64298;BME280;50639;53.270;7.956;2023-10-31T11:33:01;99866.88;;;10.60;88.67
64298;BME280;50639;53.270;7.956;2023-10-31T11:35:30;99889.28;;;10.72;87.49
64298;BME280;50639;53.270;7.956;2023-10-31T11:38:06;99890.44;;;10.68;87.00
64298;BME280;50639;53.270;7.956;2023-10-31T11:43:09;99892.16;;;10.45;87.43
64298;BME280;50639;53.270;7.956;2023-10-31T11:45:39;99905.72;;;10.60;87.08
64298;BME280;50639;53.270;7.956;2023-10-31T11:48:12;99899.81;;;10.46;87.08
64298;BME280;50639;53.270;7.956;2023-10-31T11:50:37;99918.38;;;10.40;87.79
64298;BME280;50639;53.270;7.956;2023-10-31T11:53:04;99925.56;;;10.48;87.49
64298;BME280;50639;53.270;7.956;2023-10-31T11:55:31;99936.06;;;10.46;86.53
64298;BME280;50639;53.270;7.956;2023-10-31T11:57:58;99932.97;;;10.41;85.99
64298;BME280;50639;53.270;7.956;2023-10-31T12:00:23;99940.75;;;10.41;86.05
64298;BME280;50639;53.270;7.956;2023-10-31T12:02:59;99951.03;;;10.65;85.63
64298;BME280;50639;53.270;7.956;2023-10-31T12:05:24;99954.09;;;10.59;85.23
64298;BME280;50639;53.270;7.956;2023-10-31T12:07:49;99959.84;;;10.51;84.69
64298;BME280;50639;53.270;7.956;2023-10-31T12:10:21;99956.94;;;10.32;84.73
64298;BME280;50639;53.270;7.956;2023-10-31T12:12:47;99970.41;;;10.37;85.24
64298;BME280;50639;53.270;7.956;2023-10-31T12:15:13;99969.97;;;10.54;85.45
64298;BME280;50639;53.270;7.956;2023-10-31T12:17:38;99983.44;;;10.71;84.75
64298;BME280;50639;53.270;7.956;2023-10-31T12:20:06;99980.09;;;10.57;83.19
64298;BME280;50639;53.270;7.956;2023-10-31T12:22:32;99986.75;;;10.84;83.84
64298;BME280;50639;53.270;7.956;2023-10-31T12:25:01;99989.63;;;10.57;82.20
64298;BME280;50639;53.270;7.956;2023-10-31T12:27:41;99996.56;;;10.56;83.00
64298;BME280;50639;53.270;7.956;2023-10-31T12:30:07;100000.34;;;10.52;83.15
64298;BME280;50639;53.270;7.956;2023-10-31T12:32:32;100017.69;;;10.39;82.77
64298;BME280;50639;53.270;7.956;2023-10-31T12:34:58;100027.00;;;10.18;82.09
64298;BME280;50639;53.270;7.956;2023-10-31T12:37:23;100025.13;;;10.07;83.43
64298;BME280;50639;53.270;7.956;2023-10-31T12:39:48;100028.22;;;10.12;83.28
64298;BME280;50639;53.270;7.956;2023-10-31T12:42:16;100028.88;;;10.40;83.28
64298;BME280;50639;53.270;7.956;2023-10-31T12:44:42;100033.22;;;10.74;83.30
64298;BME280;50639;53.270;7.956;2023-10-31T12:47:07;100037.88;;;10.93;82.52
64298;BME280;50639;53.270;7.956;2023-10-31T12:49:33;100039.78;;;11.02;82.32
64298;BME280;50639;53.270;7.956;2023-10-31T12:51:58;100044.41;;;11.10;81.94
64298;BME280;50639;53.270;7.956;2023-10-31T12:54:45;100050.94;;;10.91;81.62
64298;BME280;50639;53.270;7.956;2023-10-31T12:57:10;100046.75;;;11.02;81.23
64298;BME280;50639;53.270;7.956;2023-10-31T12:59:36;100063.22;;;11.01;81.17